sensor_id;sensor_type;location;lat;lon;timestamp;P1;durP1;ratioP1;P2;durP2;ratioP2
65658;SDS011;60181;53.258;6.932;2022-12-24T00:01:10;20.90;;;9.60;;
65658;SDS011;60181;53.258;6.932;2022-12-24T00:05:38;20.90;;;9.60;;
65658;SDS011;60181;53.258;6.932;2022-12-24T00:10:07;21.20;;;9.10;;
65658;SDS011;60181;53.258;6.932;2022-12-24T00:14:34;21.20;;;9.10;;
65658;SDS011;60181;53.258;6.932;2022-12-24T00:19:02;20.40;;;8.80;;
65658;SDS011;60181;53.258;6.932;2022-12-24T00:23:30;20.40;;;8.80;;
65658;SDS011;60181;53.258;6.932;2022-12-24T00:27:58;17.60;;;8.80;;
65658;SDS011;60181;53.258;6.932;2022-12-24T00:32:26;17.60;;;8.80;;
65658;SDS011;60181;53.258;6.932;2022-12-24T00:36:54;17.40;;;8.60;;
65658;SDS011;60181;53.258;6.932;2022-12-24T00:41:22;17.40;;;8.60;;
65658;SDS011;60181;53.258;6.932;2022-12-24T00:45:50;17.40;;;8.60;;
65658;SDS011;60181;53.258;6.932;2022-12-24T00:50:18;20.50;;;9.40;;
65658;SDS011;60181;53.258;6.932;2022-12-24T00:54:46;20.50;;;9.40;;
65658;SDS011;60181;53.258;6.932;2022-12-24T00:59:14;20.60;;;9.50;;
65658;SDS011;60181;53.258;6.932;2022-12-24T01:03:42;20.60;;;9.50;;
65658;SDS011;60181;53.258;6.932;2022-12-24T01:08:10;18.60;;;9.00;;
65658;SDS011;60181;53.258;6.932;2022-12-24T01:12:38;18.60;;;9.00;;
65658;SDS011;60181;53.258;6.932;2022-12-24T01:17:06;18.40;;;8.90;;
65658;SDS011;60181;53.258;6.932;2022-12-24T01:21:34;18.40;;;8.90;;
65658;SDS011;60181;53.258;6.932;2022-12-24T01:26:03;18.40;;;8.90;;
65658;SDS011;60181;53.258;6.932;2022-12-24T01:30:30;18.40;;;8.20;;
65658;SDS011;60181;53.258;6.932;2022-12-24T01:34:58;18.40;;;8.20;;
65658;SDS011;60181;53.258;6.932;2022-12-24T01:39:26;18.00;;;8.90;;
65658;SDS011;60181;53.258;6.932;2022-12-24T01:43:54;18.00;;;8.90;;
65658;SDS011;60181;53.258;6.932;2022-12-24T01:52:50;18.40;;;8.50;;
65658;SDS011;60181;53.258;6.932;2022-12-24T01:57:22;17.80;;;8.70;;
65658;SDS011;60181;53.258;6.932;2022-12-24T02:01:47;17.80;;;8.70;;
65658;SDS011;60181;53.258;6.932;2022-12-24T02:06:14;20.20;;;8.40;;
65658;SDS011;60181;53.258;6.932;2022-12-24T02:10:43;20.20;;;8.40;;
65658;SDS011;60181;53.258;6.932;2022-12-24T02:15:11;20.20;;;8.40;;
65658;SDS011;60181;53.258;6.932;2022-12-24T02:19:44;18.40;;;8.40;;
65658;SDS011;60181;53.258;6.932;2022-12-24T02:24:28;18.40;;;8.40;;
65658;SDS011;60181;53.258;6.932;2022-12-24T02:29:00;17.40;;;7.90;;
65658;SDS011;60181;53.258;6.932;2022-12-24T02:33:17;17.40;;;7.90;;
65658;SDS011;60181;53.258;6.932;2022-12-24T02:37:32;17.60;;;8.40;;
65658;SDS011;60181;53.258;6.932;2022-12-24T02:41:58;17.60;;;8.40;;
65658;SDS011;60181;53.258;6.932;2022-12-24T02:46:27;17.40;;;8.70;;
65658;SDS011;60181;53.258;6.932;2022-12-24T02:50:55;17.40;;;8.70;;
65658;SDS011;60181;53.258;6.932;2022-12-24T02:55:34;17.40;;;8.70;;
65658;SDS011;60181;53.258;6.932;2022-12-24T02:59:56;14.30;;;8.10;;
65658;SDS011;60181;53.258;6.932;2022-12-24T03:08:53;17.30;;;8.90;;
65658;SDS011;60181;53.258;6.932;2022-12-24T03:13:15;17.30;;;8.90;;
65658;SDS011;60181;53.258;6.932;2022-12-24T03:17:42;18.90;;;8.80;;
65658;SDS011;60181;53.258;6.932;2022-12-24T03:22:10;18.90;;;8.80;;
65658;SDS011;60181;53.258;6.932;2022-12-24T03:26:38;18.80;;;9.10;;
65658;SDS011;60181;53.258;6.932;2022-12-24T03:31:06;18.80;;;9.10;;
65658;SDS011;60181;53.258;6.932;2022-12-24T03:35:34;18.80;;;9.10;;
65658;SDS011;60181;53.258;6.932;2022-12-24T03:40:03;19.00;;;8.80;;
65658;SDS011;60181;53.258;6.932;2022-12-24T03:44:30;19.00;;;8.80;;
65658;SDS011;60181;53.258;6.932;2022-12-24T03:48:58;18.20;;;9.10;;
65658;SDS011;60181;53.258;6.932;2022-12-24T03:53:26;18.20;;;9.10;;
65658;SDS011;60181;53.258;6.932;2022-12-24T03:57:54;23.60;;;9.80;;
65658;SDS011;60181;53.258;6.932;2022-12-24T04:02:22;23.60;;;9.80;;
65658;SDS011;60181;53.258;6.932;2022-12-24T04:06:50;22.10;;;9.60;;
65658;SDS011;60181;53.258;6.932;2022-12-24T04:11:18;22.10;;;9.60;;
65658;SDS011;60181;53.258;6.932;2022-12-24T04:15:55;22.10;;;9.60;;
65658;SDS011;60181;53.258;6.932;2022-12-24T04:20:14;23.50;;;10.00;;
65658;SDS011;60181;53.258;6.932;2022-12-24T04:24:42;23.50;;;10.00;;
65658;SDS011;60181;53.258;6.932;2022-12-24T04:29:10;25.80;;;9.80;;
65658;SDS011;60181;53.258;6.932;2022-12-24T04:33:38;25.80;;;9.80;;
65658;SDS011;60181;53.258;6.932;2022-12-24T04:38:07;22.20;;;10.10;;
65658;SDS011;60181;53.258;6.932;2022-12-24T04:42:34;22.20;;;10.10;;
65658;SDS011;60181;53.258;6.932;2022-12-24T04:47:02;19.80;;;9.50;;
65658;SDS011;60181;53.258;6.932;2022-12-24T04:51:30;19.80;;;9.50;;
65658;SDS011;60181;53.258;6.932;2022-12-24T04:55:58;19.80;;;9.50;;
65658;SDS011;60181;53.258;6.932;2022-12-24T05:00:26;20.90;;;9.20;;
65658;SDS011;60181;53.258;6.932;2022-12-24T05:04:54;20.90;;;9.20;;
65658;SDS011;60181;53.258;6.932;2022-12-24T05:09:22;17.60;;;7.60;;
65658;SDS011;60181;53.258;6.932;2022-12-24T05:13:50;17.60;;;7.60;;
65658;SDS011;60181;53.258;6.932;2022-12-24T05:18:18;14.60;;;6.90;;
65658;SDS011;60181;53.258;6.932;2022-12-24T05:22:46;14.60;;;6.90;;
65658;SDS011;60181;53.258;6.932;2022-12-24T05:27:14;13.10;;;6.60;;
65658;SDS011;60181;53.258;6.932;2022-12-24T05:31:42;13.10;;;6.60;;
65658;SDS011;60181;53.258;6.932;2022-12-24T05:36:10;13.10;;;6.60;;
65658;SDS011;60181;53.258;6.932;2022-12-24T05:40:38;9.60;;;4.50;;
65658;SDS011;60181;53.258;6.932;2022-12-24T05:45:06;9.60;;;4.50;;
65658;SDS011;60181;53.258;6.932;2022-12-24T05:49:34;7.40;;;3.70;;
65658;SDS011;60181;53.258;6.932;2022-12-24T05:54:02;7.40;;;3.70;;
65658;SDS011;60181;53.258;6.932;2022-12-24T05:58:30;8.40;;;3.40;;
65658;SDS011;60181;53.258;6.932;2022-12-24T06:02:58;8.40;;;3.40;;
65658;SDS011;60181;53.258;6.932;2022-12-24T06:07:26;5.60;;;3.00;;
65658;SDS011;60181;53.258;6.932;2022-12-24T06:11:54;5.60;;;3.00;;
65658;SDS011;60181;53.258;6.932;2022-12-24T06:16:23;7.00;;;3.10;;
65658;SDS011;60181;53.258;6.932;2022-12-24T06:20:50;7.00;;;3.10;;
65658;SDS011;60181;53.258;6.932;2022-12-24T06:25:18;7.00;;;3.10;;
65658;SDS011;60181;53.258;6.932;2022-12-24T06:29:46;7.50;;;2.80;;
65658;SDS011;60181;53.258;6.932;2022-12-24T06:34:14;7.50;;;2.80;;
65658;SDS011;60181;53.258;6.932;2022-12-24T06:38:42;7.60;;;2.70;;
65658;SDS011;60181;53.258;6.932;2022-12-24T06:43:10;7.60;;;2.70;;
65658;SDS011;60181;53.258;6.932;2022-12-24T06:47:38;6.20;;;2.50;;
65658;SDS011;60181;53.258;6.932;2022-12-24T06:52:06;6.20;;;2.50;;
65658;SDS011;60181;53.258;6.932;2022-12-24T06:56:34;6.30;;;2.30;;
65658;SDS011;60181;53.258;6.932;2022-12-24T07:01:02;6.30;;;2.30;;
65658;SDS011;60181;53.258;6.932;2022-12-24T07:05:30;6.30;;;2.30;;
65658;SDS011;60181;53.258;6.932;2022-12-24T07:09:58;6.30;;;2.40;;
65658;SDS011;60181;53.258;6.932;2022-12-24T07:14:26;6.30;;;2.40;;
65658;SDS011;60181;53.258;6.932;2022-12-24T07:18:54;5.40;;;2.10;;
65658;SDS011;60181;53.258;6.932;2022-12-24T07:23:22;5.40;;;2.10;;
65658;SDS011;60181;53.258;6.932;2022-12-24T07:27:50;6.50;;;2.30;;
65658;SDS011;60181;53.258;6.932;2022-12-24T07:32:18;6.50;;;2.30;;
65658;SDS011;60181;53.258;6.932;2022-12-24T07:36:46;5.50;;;2.00;;
65658;SDS011;60181;53.258;6.932;2022-12-24T07:41:14;5.50;;;2.00;;
65658;SDS011;60181;53.258;6.932;2022-12-24T07:45:42;5.50;;;2.00;;
65658;SDS011;60181;53.258;6.932;2022-12-24T07:50:10;17.30;;;2.60;;
65658;SDS011;60181;53.258;6.932;2022-12-24T07:54:38;17.30;;;2.60;;
65658;SDS011;60181;53.258;6.932;2022-12-24T07:59:06;14.90;;;2.20;;
65658;SDS011;60181;53.258;6.932;2022-12-24T08:03:34;14.90;;;2.20;;
65658;SDS011;60181;53.258;6.932;2022-12-24T08:08:02;7.10;;;2.10;;
65658;SDS011;60181;53.258;6.932;2022-12-24T08:12:30;7.10;;;2.10;;
65658;SDS011;60181;53.258;6.932;2022-12-24T08:16:58;6.30;;;1.70;;
65658;SDS011;60181;53.258;6.932;2022-12-24T08:21:26;6.30;;;1.70;;
65658;SDS011;60181;53.258;6.932;2022-12-24T08:25:54;6.30;;;1.70;;
65658;SDS011;60181;53.258;6.932;2022-12-24T08:30:22;7.60;;;1.80;;
65658;SDS011;60181;53.258;6.932;2022-12-24T08:34:50;7.60;;;1.80;;
65658;SDS011;60181;53.258;6.932;2022-12-24T08:39:18;7.90;;;1.90;;
65658;SDS011;60181;53.258;6.932;2022-12-24T08:43:46;7.90;;;1.90;;
65658;SDS011;60181;53.258;6.932;2022-12-24T08:48:14;5.80;;;1.90;;
65658;SDS011;60181;53.258;6.932;2022-12-24T08:52:42;5.80;;;1.90;;
65658;SDS011;60181;53.258;6.932;2022-12-24T08:57:10;6.40;;;2.00;;
65658;SDS011;60181;53.258;6.932;2022-12-24T09:01:38;6.40;;;2.00;;
65658;SDS011;60181;53.258;6.932;2022-12-24T09:06:06;6.40;;;2.00;;
65658;SDS011;60181;53.258;6.932;2022-12-24T09:10:34;7.10;;;1.80;;
65658;SDS011;60181;53.258;6.932;2022-12-24T09:15:02;7.10;;;1.80;;
65658;SDS011;60181;53.258;6.932;2022-12-24T09:19:30;5.20;;;1.90;;
65658;SDS011;60181;53.258;6.932;2022-12-24T09:23:58;5.20;;;1.90;;
65658;SDS011;60181;53.258;6.932;2022-12-24T09:28:26;8.00;;;2.00;;
65658;SDS011;60181;53.258;6.932;2022-12-24T09:32:54;8.00;;;2.00;;
65658;SDS011;60181;53.258;6.932;2022-12-24T09:37:22;5.90;;;2.00;;
65658;SDS011;60181;53.258;6.932;2022-12-24T09:42:03;5.90;;;2.00;;
65658;SDS011;60181;53.258;6.932;2022-12-24T09:46:25;9.30;;;2.40;;
65658;SDS011;60181;53.258;6.932;2022-12-24T09:50:49;9.30;;;2.40;;
65658;SDS011;60181;53.258;6.932;2022-12-24T09:55:19;9.30;;;2.40;;
65658;SDS011;60181;53.258;6.932;2022-12-24T09:59:42;9.30;;;2.90;;
65658;SDS011;60181;53.258;6.932;2022-12-24T10:04:11;9.30;;;2.90;;
65658;SDS011;60181;53.258;6.932;2022-12-24T10:13:12;8.30;;;2.80;;
65658;SDS011;60181;53.258;6.932;2022-12-24T10:17:43;8.20;;;2.90;;
65658;SDS011;60181;53.258;6.932;2022-12-24T10:22:12;8.20;;;2.90;;
65658;SDS011;60181;53.258;6.932;2022-12-24T10:26:33;8.40;;;2.50;;
65658;SDS011;60181;53.258;6.932;2022-12-24T10:30:58;8.40;;;2.50;;
65658;SDS011;60181;53.258;6.932;2022-12-24T10:35:27;8.40;;;2.50;;
65658;SDS011;60181;53.258;6.932;2022-12-24T10:39:54;9.50;;;2.90;;
65658;SDS011;60181;53.258;6.932;2022-12-24T10:44:23;9.50;;;2.90;;
65658;SDS011;60181;53.258;6.932;2022-12-24T10:49:02;11.10;;;2.90;;
65658;SDS011;60181;53.258;6.932;2022-12-24T10:53:20;11.10;;;2.90;;
65658;SDS011;60181;53.258;6.932;2022-12-24T10:57:46;11.10;;;3.10;;
65658;SDS011;60181;53.258;6.932;2022-12-24T11:02:27;11.10;;;3.10;;
65658;SDS011;60181;53.258;6.932;2022-12-24T11:07:00;13.70;;;3.40;;
65658;SDS011;60181;53.258;6.932;2022-12-24T11:11:14;13.70;;;3.40;;
65658;SDS011;60181;53.258;6.932;2022-12-24T11:15:37;13.70;;;3.40;;
65658;SDS011;60181;53.258;6.932;2022-12-24T11:20:06;11.00;;;3.70;;
65658;SDS011;60181;53.258;6.932;2022-12-24T11:24:34;11.00;;;3.70;;
65658;SDS011;60181;53.258;6.932;2022-12-24T11:29:08;12.10;;;4.10;;
65658;SDS011;60181;53.258;6.932;2022-12-24T11:33:30;12.10;;;4.10;;
65658;SDS011;60181;53.258;6.932;2022-12-24T11:42:35;13.80;;;4.30;;
65658;SDS011;60181;53.258;6.932;2022-12-24T11:46:54;13.00;;;4.20;;
65658;SDS011;60181;53.258;6.932;2022-12-24T11:51:26;13.00;;;4.20;;
65658;SDS011;60181;53.258;6.932;2022-12-24T11:55:50;13.00;;;4.20;;
65658;SDS011;60181;53.258;6.932;2022-12-24T12:00:18;16.80;;;4.70;;
65658;SDS011;60181;53.258;6.932;2022-12-24T12:04:47;16.80;;;4.70;;
65658;SDS011;60181;53.258;6.932;2022-12-24T12:09:18;14.80;;;4.50;;
65658;SDS011;60181;53.258;6.932;2022-12-24T12:13:42;14.80;;;4.50;;
65658;SDS011;60181;53.258;6.932;2022-12-24T12:18:20;18.50;;;5.00;;
65658;SDS011;60181;53.258;6.932;2022-12-24T12:22:41;18.50;;;5.00;;
65658;SDS011;60181;53.258;6.932;2022-12-24T12:31:50;21.20;;;5.30;;
65658;SDS011;60181;53.258;6.932;2022-12-24T12:36:02;21.20;;;5.30;;
65658;SDS011;60181;53.258;6.932;2022-12-24T12:40:48;19.70;;;5.30;;
65658;SDS011;60181;53.258;6.932;2022-12-24T12:45:22;19.70;;;5.30;;
65658;SDS011;60181;53.258;6.932;2022-12-24T12:49:35;20.30;;;5.60;;
65658;SDS011;60181;53.258;6.932;2022-12-24T12:58:32;18.40;;;5.40;;
65658;SDS011;60181;53.258;6.932;2022-12-24T13:02:53;18.40;;;5.40;;
65658;SDS011;60181;53.258;6.932;2022-12-24T13:07:36;20.90;;;6.00;;
65658;SDS011;60181;53.258;6.932;2022-12-24T13:20:44;18.10;;;5.90;;
65658;SDS011;60181;53.258;6.932;2022-12-24T13:25:17;18.10;;;5.90;;
65658;SDS011;60181;53.258;6.932;2022-12-24T13:29:42;21.90;;;5.70;;
65658;SDS011;60181;53.258;6.932;2022-12-24T13:34:05;21.90;;;5.70;;
65658;SDS011;60181;53.258;6.932;2022-12-24T13:38:40;23.50;;;6.60;;
65658;SDS011;60181;53.258;6.932;2022-12-24T13:47:29;22.60;;;6.90;;
65658;SDS011;60181;53.258;6.932;2022-12-24T13:56:25;21.70;;;6.80;;
65658;SDS011;60181;53.258;6.932;2022-12-24T14:00:57;21.70;;;6.80;;
65658;SDS011;60181;53.258;6.932;2022-12-24T14:09:49;23.10;;;6.90;;
65658;SDS011;60181;53.258;6.932;2022-12-24T14:18:47;20.00;;;6.30;;
65658;SDS011;60181;53.258;6.932;2022-12-24T14:23:17;20.00;;;6.30;;
65658;SDS011;60181;53.258;6.932;2022-12-24T14:27:45;18.00;;;5.70;;
65658;SDS011;60181;53.258;6.932;2022-12-24T14:32:13;18.00;;;5.70;;
65658;SDS011;60181;53.258;6.932;2022-12-24T14:36:37;21.00;;;6.10;;
65658;SDS011;60181;53.258;6.932;2022-12-24T14:45:41;21.00;;;6.10;;
65658;SDS011;60181;53.258;6.932;2022-12-24T14:54:36;17.90;;;6.20;;
65658;SDS011;60181;53.258;6.932;2022-12-24T14:58:57;24.50;;;6.30;;
65658;SDS011;60181;53.258;6.932;2022-12-24T15:03:26;24.50;;;6.30;;
65658;SDS011;60181;53.258;6.932;2022-12-24T15:07:55;20.10;;;6.10;;
65658;SDS011;60181;53.258;6.932;2022-12-24T15:12:21;20.10;;;6.10;;
65658;SDS011;60181;53.258;6.932;2022-12-24T15:16:51;17.70;;;5.80;;
65658;SDS011;60181;53.258;6.932;2022-12-24T15:21:23;17.70;;;5.80;;
65658;SDS011;60181;53.258;6.932;2022-12-24T15:25:45;17.70;;;5.80;;
65658;SDS011;60181;53.258;6.932;2022-12-24T15:30:14;16.90;;;6.10;;
65658;SDS011;60181;53.258;6.932;2022-12-24T15:34:42;16.90;;;6.10;;
65658;SDS011;60181;53.258;6.932;2022-12-24T15:39:12;15.60;;;5.20;;
65658;SDS011;60181;53.258;6.932;2022-12-24T15:43:38;15.60;;;5.20;;
65658;SDS011;60181;53.258;6.932;2022-12-24T15:48:06;16.30;;;5.00;;
65658;SDS011;60181;53.258;6.932;2022-12-24T15:52:36;16.30;;;5.00;;
65658;SDS011;60181;53.258;6.932;2022-12-24T15:57:11;13.70;;;4.80;;
65658;SDS011;60181;53.258;6.932;2022-12-24T16:01:29;13.70;;;4.80;;
65658;SDS011;60181;53.258;6.932;2022-12-24T16:05:58;13.70;;;4.80;;
65658;SDS011;60181;53.258;6.932;2022-12-24T16:10:25;14.50;;;5.10;;
65658;SDS011;60181;53.258;6.932;2022-12-24T16:14:56;14.50;;;5.10;;
65658;SDS011;60181;53.258;6.932;2022-12-24T16:19:25;16.20;;;4.90;;
65658;SDS011;60181;53.258;6.932;2022-12-24T16:23:49;16.20;;;4.90;;
65658;SDS011;60181;53.258;6.932;2022-12-24T16:28:17;15.80;;;4.80;;
65658;SDS011;60181;53.258;6.932;2022-12-24T16:32:45;15.80;;;4.80;;
65658;SDS011;60181;53.258;6.932;2022-12-24T16:37:13;14.00;;;4.40;;
65658;SDS011;60181;53.258;6.932;2022-12-24T16:41:41;14.00;;;4.40;;
65658;SDS011;60181;53.258;6.932;2022-12-24T16:46:09;14.00;;;4.40;;
65658;SDS011;60181;53.258;6.932;2022-12-24T16:50:37;15.20;;;5.10;;
65658;SDS011;60181;53.258;6.932;2022-12-24T16:55:05;15.20;;;5.10;;
65658;SDS011;60181;53.258;6.932;2022-12-24T16:59:33;12.20;;;4.40;;
65658;SDS011;60181;53.258;6.932;2022-12-24T17:04:01;12.20;;;4.40;;
65658;SDS011;60181;53.258;6.932;2022-12-24T17:08:29;11.00;;;4.30;;
65658;SDS011;60181;53.258;6.932;2022-12-24T17:12:57;11.00;;;4.30;;
65658;SDS011;60181;53.258;6.932;2022-12-24T17:17:26;12.20;;;4.80;;
65658;SDS011;60181;53.258;6.932;2022-12-24T17:21:53;12.20;;;4.80;;
65658;SDS011;60181;53.258;6.932;2022-12-24T17:26:21;12.20;;;4.80;;
65658;SDS011;60181;53.258;6.932;2022-12-24T17:30:49;14.00;;;4.30;;
65658;SDS011;60181;53.258;6.932;2022-12-24T17:35:17;14.00;;;4.30;;
65658;SDS011;60181;53.258;6.932;2022-12-24T17:39:45;14.00;;;4.30;;
65658;SDS011;60181;53.258;6.932;2022-12-24T17:44:13;14.00;;;4.30;;
65658;SDS011;60181;53.258;6.932;2022-12-24T17:48:41;12.20;;;4.20;;
65658;SDS011;60181;53.258;6.932;2022-12-24T17:53:09;12.20;;;4.20;;
65658;SDS011;60181;53.258;6.932;2022-12-24T17:57:37;12.60;;;4.00;;
65658;SDS011;60181;53.258;6.932;2022-12-24T18:02:05;12.60;;;4.00;;
65658;SDS011;60181;53.258;6.932;2022-12-24T18:06:33;11.20;;;3.90;;
65658;SDS011;60181;53.258;6.932;2022-12-24T18:11:11;11.20;;;3.90;;
65658;SDS011;60181;53.258;6.932;2022-12-24T18:15:31;11.20;;;3.90;;
65658;SDS011;60181;53.258;6.932;2022-12-24T18:19:57;11.00;;;4.00;;
65658;SDS011;60181;53.258;6.932;2022-12-24T18:24:25;11.00;;;4.00;;
65658;SDS011;60181;53.258;6.932;2022-12-24T18:28:53;11.60;;;4.20;;
65658;SDS011;60181;53.258;6.932;2022-12-24T18:33:21;11.60;;;4.20;;
65658;SDS011;60181;53.258;6.932;2022-12-24T18:37:49;8.80;;;3.60;;
65658;SDS011;60181;53.258;6.932;2022-12-24T18:42:17;8.80;;;3.60;;
65658;SDS011;60181;53.258;6.932;2022-12-24T18:46:45;13.80;;;3.90;;
65658;SDS011;60181;53.258;6.932;2022-12-24T18:51:13;13.80;;;3.90;;
65658;SDS011;60181;53.258;6.932;2022-12-24T18:55:41;13.80;;;3.90;;
65658;SDS011;60181;53.258;6.932;2022-12-24T19:00:09;13.20;;;4.20;;
65658;SDS011;60181;53.258;6.932;2022-12-24T19:04:37;13.20;;;4.20;;
65658;SDS011;60181;53.258;6.932;2022-12-24T19:09:05;8.40;;;3.70;;
65658;SDS011;60181;53.258;6.932;2022-12-24T19:13:33;8.40;;;3.70;;
65658;SDS011;60181;53.258;6.932;2022-12-24T19:18:01;13.70;;;3.90;;
65658;SDS011;60181;53.258;6.932;2022-12-24T19:22:29;13.70;;;3.90;;
65658;SDS011;60181;53.258;6.932;2022-12-24T19:26:57;12.20;;;3.90;;
65658;SDS011;60181;53.258;6.932;2022-12-24T19:31:25;12.20;;;3.90;;
65658;SDS011;60181;53.258;6.932;2022-12-24T19:35:53;12.20;;;3.90;;
65658;SDS011;60181;53.258;6.932;2022-12-24T19:40:21;13.20;;;4.10;;
65658;SDS011;60181;53.258;6.932;2022-12-24T19:44:49;13.20;;;4.10;;
65658;SDS011;60181;53.258;6.932;2022-12-24T19:49:17;12.70;;;4.00;;
65658;SDS011;60181;53.258;6.932;2022-12-24T19:53:45;12.70;;;4.00;;
65658;SDS011;60181;53.258;6.932;2022-12-24T19:58:13;9.90;;;3.80;;
65658;SDS011;60181;53.258;6.932;2022-12-24T20:02:41;9.90;;;3.80;;
65658;SDS011;60181;53.258;6.932;2022-12-24T20:07:09;12.60;;;3.70;;
65658;SDS011;60181;53.258;6.932;2022-12-24T20:11:37;12.60;;;3.70;;
65658;SDS011;60181;53.258;6.932;2022-12-24T20:16:06;12.60;;;3.70;;
65658;SDS011;60181;53.258;6.932;2022-12-24T20:20:33;10.20;;;3.60;;
65658;SDS011;60181;53.258;6.932;2022-12-24T20:25:01;10.20;;;3.60;;
65658;SDS011;60181;53.258;6.932;2022-12-24T20:29:29;9.80;;;3.70;;
65658;SDS011;60181;53.258;6.932;2022-12-24T20:33:57;9.80;;;3.70;;
65658;SDS011;60181;53.258;6.932;2022-12-24T20:38:25;12.40;;;3.80;;
65658;SDS011;60181;53.258;6.932;2022-12-24T20:42:53;12.40;;;3.80;;
65658;SDS011;60181;53.258;6.932;2022-12-24T20:47:21;10.10;;;3.50;;
65658;SDS011;60181;53.258;6.932;2022-12-24T20:51:49;10.10;;;3.50;;
65658;SDS011;60181;53.258;6.932;2022-12-24T20:56:17;10.10;;;3.50;;
65658;SDS011;60181;53.258;6.932;2022-12-24T21:00:45;11.00;;;3.50;;
65658;SDS011;60181;53.258;6.932;2022-12-24T21:05:13;11.00;;;3.50;;
65658;SDS011;60181;53.258;6.932;2022-12-24T21:09:41;22.30;;;5.40;;
65658;SDS011;60181;53.258;6.932;2022-12-24T21:14:09;22.30;;;5.40;;
65658;SDS011;60181;53.258;6.932;2022-12-24T21:18:37;21.00;;;6.10;;
65658;SDS011;60181;53.258;6.932;2022-12-24T21:23:05;21.00;;;6.10;;
65658;SDS011;60181;53.258;6.932;2022-12-24T21:27:33;22.20;;;6.20;;
65658;SDS011;60181;53.258;6.932;2022-12-24T21:32:01;22.20;;;6.20;;
65658;SDS011;60181;53.258;6.932;2022-12-24T21:36:29;25.60;;;7.30;;
65658;SDS011;60181;53.258;6.932;2022-12-24T21:41:01;25.60;;;7.30;;
65658;SDS011;60181;53.258;6.932;2022-12-24T21:45:25;25.60;;;7.30;;
65658;SDS011;60181;53.258;6.932;2022-12-24T21:49:53;24.50;;;6.60;;
65658;SDS011;60181;53.258;6.932;2022-12-24T21:54:21;24.50;;;6.60;;
65658;SDS011;60181;53.258;6.932;2022-12-24T21:58:49;26.40;;;7.00;;
65658;SDS011;60181;53.258;6.932;2022-12-24T22:03:17;26.40;;;7.00;;
65658;SDS011;60181;53.258;6.932;2022-12-24T22:07:45;27.10;;;7.10;;
65658;SDS011;60181;53.258;6.932;2022-12-24T22:12:13;27.10;;;7.10;;
65658;SDS011;60181;53.258;6.932;2022-12-24T22:16:41;25.70;;;7.90;;
65658;SDS011;60181;53.258;6.932;2022-12-24T22:21:09;25.70;;;7.90;;
65658;SDS011;60181;53.258;6.932;2022-12-24T22:25:37;25.70;;;7.90;;
65658;SDS011;60181;53.258;6.932;2022-12-24T22:30:05;26.60;;;8.50;;
65658;SDS011;60181;53.258;6.932;2022-12-24T22:34:33;26.60;;;8.50;;
65658;SDS011;60181;53.258;6.932;2022-12-24T22:39:01;27.80;;;8.20;;
65658;SDS011;60181;53.258;6.932;2022-12-24T22:43:29;27.80;;;8.20;;
65658;SDS011;60181;53.258;6.932;2022-12-24T22:47:57;31.30;;;11.60;;
65658;SDS011;60181;53.258;6.932;2022-12-24T22:52:25;31.30;;;11.60;;
65658;SDS011;60181;53.258;6.932;2022-12-24T22:56:53;37.30;;;15.70;;
65658;SDS011;60181;53.258;6.932;2022-12-24T23:01:33;37.30;;;15.70;;
65658;SDS011;60181;53.258;6.932;2022-12-24T23:05:55;37.30;;;15.70;;
65658;SDS011;60181;53.258;6.932;2022-12-24T23:10:17;35.80;;;14.30;;
65658;SDS011;60181;53.258;6.932;2022-12-24T23:14:45;35.80;;;14.30;;
65658;SDS011;60181;53.258;6.932;2022-12-24T23:19:13;29.60;;;12.10;;
65658;SDS011;60181;53.258;6.932;2022-12-24T23:23:41;29.60;;;12.10;;
65658;SDS011;60181;53.258;6.932;2022-12-24T23:28:09;36.20;;;14.90;;
65658;SDS011;60181;53.258;6.932;2022-12-24T23:32:37;36.20;;;14.90;;
65658;SDS011;60181;53.258;6.932;2022-12-24T23:37:05;42.80;;;16.10;;
65658;SDS011;60181;53.258;6.932;2022-12-24T23:41:33;42.80;;;16.10;;
65658;SDS011;60181;53.258;6.932;2022-12-24T23:46:01;42.80;;;16.10;;
65658;SDS011;60181;53.258;6.932;2022-12-24T23:50:29;48.10;;;17.40;;
65658;SDS011;60181;53.258;6.932;2022-12-24T23:54:56;48.10;;;17.40;;
65658;SDS011;60181;53.258;6.932;2022-12-24T23:59:24;37.30;;;14.20;;
